Time;durP1;ratioP1;P1;durP2;ratioP2;P2;SDS_P1;SDS_P2;PMS_P1;PMS_P2;Temp;Humidity;BMP_temperature;BMP_pressure;BME280_temperature;BME280_humidity;BME280_pressure;Samples;Min_cycle;Max_cycle;Signal;HPM_P1;HPM_P2
2023/01/29 00:01:22;;;;;;;21.93;12.83;;;1.50;99.90;;;;;;5035846;28;20332;-60
2023/01/29 00:03:52;;;;;;;20.40;12.13;;;1.50;99.90;;;;;;5020217;28;20270;-60
2023/01/29 00:06:19;;;;;;;19.83;12.23;;;1.90;99.90;;;;;;5019106;28;20214;-60
2023/01/29 00:08:46;;;;;;;24.63;13.00;;;1.50;99.90;;;;;;5027864;28;20220;-60
2023/01/29 00:11:14;;;;;;;20.67;12.63;;;1.30;99.90;;;;;;5029974;28;20201;-60
2023/01/29 00:13:42;;;;;;;22.03;12.57;;;1.30;99.90;;;;;;5030857;28;20292;-60
2023/01/29 00:16:09;;;;;;;19.43;12.83;;;1.30;99.90;;;;;;5029881;28;20283;-60
2023/01/29 00:18:40;;;;;;;22.57;12.47;;;1.20;99.90;;;;;;5026764;28;20736;-60
2023/01/29 00:21:09;;;;;;;24.57;13.70;;;1.10;99.90;;;;;;5034908;28;20293;-60
2023/01/29 00:23:36;;;;;;;27.80;13.50;;;0.90;99.90;;;;;;5027276;28;20276;-65
2023/01/29 00:26:02;;;;;;;23.37;12.60;;;0.90;99.90;;;;;;5027528;28;20205;-61
2023/01/29 00:28:29;;;;;;;19.43;11.80;;;0.90;99.90;;;;;;5027075;28;20585;-60
2023/01/29 00:30:56;;;;;;;19.33;11.70;;;0.80;99.90;;;;;;5027255;28;20206;-60
2023/01/29 00:33:23;;;;;;;24.27;13.13;;;0.70;99.90;;;;;;5027062;28;20200;-60
2023/01/29 00:35:50;;;;;;;19.60;11.63;;;0.60;99.90;;;;;;4324228;28;10000752;-61
2023/01/29 00:38:17;;;;;;;22.50;12.90;;;0.70;99.90;;;;;;5014584;28;20588;-61
2023/01/29 00:46:15;;;;;;;20.53;12.33;;;0.60;99.90;;;;;;5021109;28;20918;-61
2023/01/29 00:48:42;;;;;;;22.40;12.00;;;0.50;99.90;;;;;;5023535;28;20204;-60
2023/01/29 00:51:08;;;;;;;22.23;12.83;;;0.50;99.90;;;;;;5026961;28;20207;-61
2023/01/29 00:53:35;;;;;;;22.47;11.47;;;0.50;99.90;;;;;;5022045;28;20204;-63
2023/01/29 00:56:02;;;;;;;20.33;12.67;;;0.40;99.90;;;;;;5025882;28;20204;-60
2023/01/29 00:58:33;;;;;;;21.30;12.07;;;0.40;99.90;;;;;;5018532;28;21615;-61
2023/01/29 01:01:01;;;;;;;21.70;12.37;;;0.60;99.90;;;;;;5013284;28;20719;-61
2023/01/29 01:03:29;;;;;;;22.37;12.70;;;0.60;99.90;;;;;;5034738;28;20229;-60
2023/01/29 01:06:06;;;;;;;21.87;12.37;;;0.60;99.90;;;;;;5027454;28;20602;-60
2023/01/29 01:11:19;;;;;;;20.80;11.70;;;0.60;99.90;;;;;;5026942;28;20208;-59
2023/01/29 01:13:46;;;;;;;22.97;12.70;;;0.70;99.90;;;;;;5035786;28;20220;-60
2023/01/29 01:16:17;;;;;;;22.97;13.83;;;0.70;99.90;;;;;;5032334;28;20204;-60
2023/01/29 01:18:44;;;;;;;21.33;11.27;;;0.70;99.90;;;;;;5026454;28;20199;-60
2023/01/29 01:21:11;;;;;;;19.20;11.87;;;0.70;99.90;;;;;;5030731;28;20646;-59
2023/01/29 01:23:37;;;;;;;23.90;12.40;;;0.70;99.90;;;;;;5031208;28;20200;-60
2023/01/29 01:26:08;;;;;;;19.00;11.80;;;0.80;99.90;;;;;;5032568;28;20798;-60
2023/01/29 01:28:35;;;;;;;21.73;12.60;;;0.80;99.90;;;;;;5030175;28;20210;-60
2023/01/29 01:31:12;;;;;;;21.63;12.37;;;0.70;99.90;;;;;;5031390;28;20291;-60
2023/01/29 01:33:39;;;;;;;19.97;12.03;;;0.70;99.90;;;;;;5030053;28;20640;-59
2023/01/29 01:36:08;;;;;;;21.20;12.57;;;0.60;99.90;;;;;;5025593;28;20243;-60
2023/01/29 01:38:43;;;;;;;22.47;12.37;;;0.60;99.90;;;;;;5025082;28;20208;-60
2023/01/29 01:41:15;;;;;;;21.23;12.37;;;0.70;99.90;;;;;;5032479;28;20363;-59
2023/01/29 01:43:49;;;;;;;20.60;12.63;;;0.80;99.90;;;;;;5032642;28;20228;-59
2023/01/29 01:46:17;;;;;;;20.23;12.37;;;0.80;99.90;;;;;;5031904;28;20213;-60
2023/01/29 01:48:46;;;;;;;21.37;13.40;;;0.80;99.90;;;;;;5030918;28;20685;-59
2023/01/29 01:51:15;;;;;;;22.47;13.10;;;0.80;99.90;;;;;;5031577;28;20211;-59
2023/01/29 01:53:53;;;;;;;22.13;12.80;;;0.80;99.90;;;;;;5029393;28;20198;-59
2023/01/29 01:56:25;;;;;;;21.50;12.37;;;0.80;99.90;;;;;;5032152;28;20200;-59
2023/01/29 01:58:56;;;;;;;22.43;13.33;;;0.90;99.90;;;;;;5028098;28;20512;-60
2023/01/29 02:01:27;;;;;;;19.77;12.33;;;0.90;99.90;;;;;;5024548;28;20663;-60
2023/01/29 02:09:52;;;;;;;21.43;11.73;;;1.10;99.90;;;;;;5022569;28;20203;-61
2023/01/29 02:12:20;;;;;;;20.03;11.67;;;0.90;99.90;;;;;;5022749;28;20563;-61
2023/01/29 02:14:47;;;;;;;20.87;12.43;;;1.00;99.90;;;;;;5031074;28;20686;-60
2023/01/29 02:17:17;;;;;;;23.80;12.93;;;1.30;99.90;;;;;;5038678;28;20196;-60
2023/01/29 02:19:53;;;;;;;22.70;12.77;;;1.10;99.90;;;;;;5037712;28;20534;-61
2023/01/29 02:22:32;;;;;;;20.30;12.17;;;1.10;99.90;;;;;;5033712;28;20215;-60
2023/01/29 02:25:22;;;;;;;17.97;12.47;;;1.20;99.90;;;;;;5037956;28;20222;-61
2023/01/29 02:28:20;;;;;;;22.00;12.60;;;1.20;99.90;;;;;;5036104;28;20196;-60
2023/01/29 02:31:06;;;;;;;22.10;12.77;;;1.20;99.90;;;;;;5036735;28;20326;-60
2023/01/29 02:33:40;;;;;;;22.77;12.37;;;1.40;99.90;;;;;;5036636;28;20211;-60
2023/01/29 02:36:39;;;;;;;25.30;12.60;;;1.50;99.90;;;;;;5020364;28;20223;-60
2023/01/29 02:39:16;;;;;;;20.20;12.53;;;1.40;99.90;;;;;;5020256;28;20639;-60
2023/01/29 02:42:01;;;;;;;18.77;11.07;;;1.40;99.90;;;;;;5030786;28;20227;-60
2023/01/29 02:44:37;;;;;;;19.77;11.73;;;1.40;99.90;;;;;;5033844;28;20321;-60
2023/01/29 02:47:29;;;;;;;22.83;13.40;;;1.20;99.90;;;;;;5033364;28;20291;-60
2023/01/29 02:50:05;;;;;;;22.20;11.90;;;1.20;99.90;;;;;;5036637;28;20204;-61
2023/01/29 02:53:00;;;;;;;21.83;11.93;;;1.20;99.90;;;;;;5034380;28;20613;-61
2023/01/29 02:55:39;;;;;;;25.03;13.03;;;1.30;99.90;;;;;;5035762;28;20570;-59
2023/01/29 02:58:15;;;;;;;21.83;13.43;;;1.30;99.90;;;;;;5035516;28;20204;-59
2023/01/29 03:00:46;;;;;;;20.57;12.87;;;1.30;99.90;;;;;;5036766;28;20243;-62
2023/01/29 03:03:35;;;;;;;22.83;12.83;;;1.30;99.90;;;;;;5037542;28;20216;-59
2023/01/29 03:06:07;;;;;;;25.47;13.30;;;1.30;99.90;;;;;;5036473;28;20210;-59
2023/01/29 03:08:44;;;;;;;24.97;13.53;;;1.20;99.90;;;;;;5037226;28;20189;-59
2023/01/29 03:11:13;;;;;;;24.07;12.83;;;1.30;99.90;;;;;;5036410;28;20210;-59
2023/01/29 03:14:04;;;;;;;23.87;13.93;;;1.30;99.90;;;;;;5034615;28;20236;-59
2023/01/29 03:16:40;;;;;;;21.20;12.43;;;1.40;99.90;;;;;;5037164;28;20210;-60
2023/01/29 03:19:19;;;;;;;26.50;13.00;;;1.60;99.90;;;;;;5054770;28;20382;-61
2023/01/29 03:21:59;;;;;;;23.27;13.10;;;1.50;99.90;;;;;;5028213;28;20878;-59
2023/01/29 03:33:27;;;;;;;24.80;13.97;;;1.40;99.90;;;;;;5041815;28;20200;-59
2023/01/29 03:36:01;;;;;;;23.47;13.43;;;1.40;99.90;;;;;;5040324;28;20228;-60
2023/01/29 03:38:30;;;;;;;26.20;14.83;;;1.40;99.90;;;;;;5025152;28;20200;-59
2023/01/29 03:41:06;;;;;;;25.93;14.33;;;1.40;99.90;;;;;;5040063;28;20295;-60
2023/01/29 03:43:39;;;;;;;24.20;13.40;;;1.70;99.90;;;;;;5041911;28;20212;-60
2023/01/29 03:46:17;;;;;;;22.67;13.37;;;1.60;99.90;;;;;;5038950;28;21026;-59
2023/01/29 03:49:10;;;;;;;22.50;13.83;;;1.50;99.90;;;;;;5038366;28;20616;-60
2023/01/29 03:52:15;;;;;;;20.90;12.73;;;1.50;99.90;;;;;;5039250;28;20568;-59
2023/01/29 03:55:09;;;;;;;25.50;13.83;;;1.40;99.90;;;;;;5006260;28;20258;-59
2023/01/29 03:57:41;;;;;;;21.03;13.10;;;1.40;99.90;;;;;;5039844;28;20288;-59
2023/01/29 04:00:31;;;;;;;21.63;13.80;;;1.40;99.90;;;;;;5041291;28;20563;-59
2023/01/29 04:03:27;;;;;;;24.40;13.53;;;1.40;99.90;;;;;;5040790;28;20765;-61
2023/01/29 04:06:04;;;;;;;25.97;14.00;;;1.40;99.90;;;;;;5021750;28;20689;-59
2023/01/29 04:08:37;;;;;;;20.10;12.00;;;1.60;99.90;;;;;;5039607;28;20208;-59
2023/01/29 04:11:10;;;;;;;23.87;13.20;;;1.60;99.90;;;;;;5023578;28;20228;-59
2023/01/29 04:13:38;;;;;;;23.47;12.70;;;1.60;99.90;;;;;;5040197;28;20674;-59
2023/01/29 04:16:10;;;;;;;22.03;12.13;;;1.60;99.90;;;;;;5035633;28;20204;-60
2023/01/29 04:18:37;;;;;;;20.20;13.20;;;1.70;99.90;;;;;;5037867;28;20267;-59
2023/01/29 04:21:06;;;;;;;24.73;13.50;;;1.60;99.90;;;;;;5038912;28;20656;-59
2023/01/29 04:23:33;;;;;;;21.77;13.10;;;1.60;99.90;;;;;;5035320;28;20707;-60
2023/01/29 04:26:18;;;;;;;21.97;13.57;;;1.50;99.90;;;;;;5030808;28;20234;-61
2023/01/29 04:29:19;;;;;;;25.07;14.77;;;1.60;99.90;;;;;;5030403;28;20632;-60
2023/01/29 04:31:59;;;;;;;23.53;13.63;;;1.60;99.90;;;;;;5031044;28;20231;-61
2023/01/29 04:34:42;;;;;;;22.37;13.33;;;1.60;99.90;;;;;;5027514;28;20203;-60
2023/01/29 04:37:20;;;;;;;25.83;14.10;;;1.60;99.90;;;;;;5028667;28;20584;-62
2023/01/29 04:40:21;;;;;;;21.80;14.13;;;1.60;99.90;;;;;;5023217;28;20208;-62
2023/01/29 04:42:52;;;;;;;24.83;13.33;;;1.60;99.90;;;;;;5029556;28;20294;-60
2023/01/29 04:45:22;;;;;;;26.77;14.67;;;1.60;99.90;;;;;;5024053;28;20394;-60
2023/01/29 04:48:10;;;;;;;25.67;15.23;;;1.50;99.90;;;;;;5026915;28;20203;-60
2023/01/29 04:50:49;;;;;;;25.13;14.03;;;1.50;99.90;;;;;;5028307;28;20211;-61
2023/01/29 04:53:25;;;;;;;26.93;14.90;;;1.50;99.90;;;;;;5031308;28;20303;-60
2023/01/29 04:55:59;;;;;;;23.30;14.10;;;1.70;99.90;;;;;;5025851;28;20344;-60
2023/01/29 04:58:36;;;;;;;25.80;13.63;;;1.70;99.90;;;;;;5028048;28;20200;-60
2023/01/29 05:01:06;;;;;;;26.27;13.97;;;1.60;99.90;;;;;;5026676;28;20228;-61
2023/01/29 05:03:35;;;;;;;23.40;14.00;;;1.70;99.90;;;;;;5025045;28;20225;-60
2023/01/29 05:06:03;;;;;;;25.50;14.23;;;1.70;99.90;;;;;;5027149;28;20595;-60
2023/01/29 05:08:32;;;;;;;26.23;14.53;;;1.80;99.90;;;;;;5025738;28;20200;-60
2023/01/29 05:10:59;;;;;;;21.87;12.90;;;1.90;99.90;;;;;;5019995;28;20201;-60
2023/01/29 05:13:30;;;;;;;21.50;12.80;;;2.00;99.90;;;;;;5027980;28;20209;-65
2023/01/29 05:16:03;;;;;;;25.40;14.07;;;2.00;99.90;;;;;;5031909;28;20201;-60
2023/01/29 05:18:31;;;;;;;26.13;14.40;;;2.20;99.90;;;;;;5029383;28;20204;-60
2023/01/29 05:21:00;;;;;;;24.90;14.00;;;2.20;99.90;;;;;;5026984;28;20303;-60
2023/01/29 05:23:27;;;;;;;23.83;13.83;;;2.10;99.90;;;;;;5030992;28;20324;-60
2023/01/29 05:25:55;;;;;;;26.07;13.97;;;2.10;99.90;;;;;;5025896;28;20203;-61
2023/01/29 05:28:22;;;;;;;24.00;13.67;;;2.20;99.90;;;;;;5028005;28;20251;-61
2023/01/29 05:30:52;;;;;;;27.47;15.70;;;2.20;99.90;;;;;;5028025;28;20257;-60
2023/01/29 05:33:21;;;;;;;25.27;13.50;;;2.10;99.90;;;;;;5031940;28;20233;-60
2023/01/29 05:35:49;;;;;;;25.50;15.50;;;2.00;99.90;;;;;;5022977;28;20261;-61
2023/01/29 05:38:17;;;;;;;26.27;15.70;;;2.20;99.90;;;;;;5026245;28;20752;-61
2023/01/29 05:40:44;;;;;;;24.70;14.80;;;2.10;99.90;;;;;;5028707;28;20720;-64
2023/01/29 05:43:22;;;;;;;27.00;15.60;;;2.00;99.90;;;;;;5029098;28;20577;-60
2023/01/29 05:45:59;;;;;;;28.33;15.37;;;1.90;99.90;;;;;;5026540;28;20237;-60
2023/01/29 05:48:28;;;;;;;23.40;14.27;;;1.90;99.90;;;;;;5029072;28;20201;-62
2023/01/29 05:51:02;;;;;;;27.10;15.10;;;2.00;99.90;;;;;;5026795;28;20245;-60
2023/01/29 05:53:29;;;;;;;21.57;14.33;;;2.00;99.90;;;;;;5027564;28;20634;-60
2023/01/29 05:55:59;;;;;;;27.63;15.10;;;1.90;99.90;;;;;;5026510;28;20323;-60
2023/01/29 05:58:26;;;;;;;25.10;14.47;;;2.00;99.90;;;;;;5025297;28;20274;-60
2023/01/29 06:00:52;;;;;;;27.43;15.90;;;1.90;99.90;;;;;;5028485;28;20239;-60
2023/01/29 06:03:19;;;;;;;32.07;16.67;;;1.90;99.90;;;;;;5027512;28;20234;-60
2023/01/29 06:05:46;;;;;;;28.80;17.40;;;2.10;99.90;;;;;;5019854;28;20216;-60
2023/01/29 06:08:13;;;;;;;27.03;16.07;;;2.00;99.90;;;;;;5022336;28;20611;-60
2023/01/29 06:10:39;;;;;;;25.70;15.93;;;2.20;99.90;;;;;;5026925;28;20197;-60
2023/01/29 06:13:06;;;;;;;27.70;15.23;;;2.30;99.90;;;;;;5030674;28;20203;-61
2023/01/29 06:15:33;;;;;;;26.07;15.83;;;2.20;99.90;;;;;;5029469;28;20297;-60
2023/01/29 06:18:00;;;;;;;24.70;14.87;;;2.20;99.90;;;;;;5029101;28;20200;-61
2023/01/29 06:20:27;;;;;;;28.13;16.67;;;2.20;99.90;;;;;;5028062;28;20240;-61
2023/01/29 06:22:53;;;;;;;27.07;15.47;;;2.30;99.90;;;;;;5027959;28;20281;-60
2023/01/29 06:25:20;;;;;;;25.57;15.20;;;2.30;99.90;;;;;;5032834;28;20346;-60
2023/01/29 06:27:50;;;;;;;28.10;16.27;;;2.20;99.90;;;;;;5032975;28;20317;-61
2023/01/29 06:30:18;;;;;;;24.47;15.97;;;2.20;99.90;;;;;;5037533;28;20285;-63
2023/01/29 06:32:45;;;;;;;25.83;15.47;;;2.10;99.90;;;;;;5038186;28;20205;-61
2023/01/29 06:35:12;;;;;;;28.47;16.30;;;2.10;99.90;;;;;;5037012;28;20281;-60
2023/01/29 06:37:38;;;;;;;30.70;15.07;;;2.10;99.90;;;;;;5035680;28;20295;-60
2023/01/29 06:40:06;;;;;;;28.13;17.13;;;2.00;99.90;;;;;;5037173;28;20654;-60
2023/01/29 06:42:36;;;;;;;34.57;15.63;;;2.20;99.90;;;;;;5034781;28;20315;-60
2023/01/29 06:45:03;;;;;;;28.97;16.17;;;2.00;99.90;;;;;;5033770;28;20368;-60
2023/01/29 06:47:30;;;;;;;23.77;14.73;;;2.00;99.90;;;;;;5029239;28;20206;-61
2023/01/29 06:49:56;;;;;;;27.87;17.10;;;2.00;99.90;;;;;;5035638;28;20291;-60
2023/01/29 06:52:27;;;;;;;28.53;15.47;;;2.00;99.90;;;;;;5039363;28;20309;-60
2023/01/29 06:54:55;;;;;;;25.73;15.10;;;2.00;99.90;;;;;;5034933;28;20204;-60
2023/01/29 06:57:22;;;;;;;27.13;15.30;;;2.10;99.90;;;;;;5035743;28;20204;-65
2023/01/29 06:59:49;;;;;;;27.77;15.90;;;2.10;99.90;;;;;;5034636;28;20233;-62
2023/01/29 07:02:16;;;;;;;27.70;16.10;;;2.10;99.90;;;;;;5026189;28;20243;-60
2023/01/29 07:04:43;;;;;;;26.37;16.03;;;2.00;99.90;;;;;;5031199;28;20217;-60
2023/01/29 07:07:12;;;;;;;23.23;14.87;;;2.10;99.90;;;;;;5030042;28;20611;-60
2023/01/29 07:09:40;;;;;;;25.50;15.53;;;2.30;99.90;;;;;;5036310;28;20322;-60
2023/01/29 07:12:07;;;;;;;26.53;14.83;;;2.10;99.90;;;;;;5031011;28;20219;-60
2023/01/29 07:14:34;;;;;;;23.47;14.67;;;2.10;99.90;;;;;;5029902;28;20204;-60
2023/01/29 07:17:01;;;;;;;26.53;15.23;;;2.10;99.90;;;;;;5031256;28;20208;-60
2023/01/29 07:19:28;;;;;;;25.67;14.97;;;2.00;99.90;;;;;;5029847;28;20210;-60
2023/01/29 07:21:55;;;;;;;25.57;15.93;;;2.00;99.90;;;;;;5038472;28;20287;-60
2023/01/29 07:24:23;;;;;;;24.27;13.87;;;2.00;99.90;;;;;;5036050;28;20218;-60
2023/01/29 07:26:50;;;;;;;23.57;14.57;;;2.10;99.90;;;;;;5037260;28;20689;-60
2023/01/29 07:29:16;;;;;;;25.80;15.03;;;2.00;99.90;;;;;;5035093;28;20521;-61
2023/01/29 07:31:43;;;;;;;24.80;14.80;;;2.10;99.90;;;;;;5031266;28;20197;-60
2023/01/29 07:34:10;;;;;;;24.73;15.93;;;2.10;99.90;;;;;;5036927;28;20222;-60
2023/01/29 07:36:37;;;;;;;27.77;15.13;;;2.00;99.90;;;;;;5034091;28;20307;-60
2023/01/29 07:39:03;;;;;;;25.00;14.77;;;2.00;99.90;;;;;;5033251;28;20287;-60
2023/01/29 07:41:30;;;;;;;24.37;14.67;;;2.00;99.90;;;;;;5030072;28;20290;-60
2023/01/29 07:43:57;;;;;;;23.70;14.83;;;2.00;99.90;;;;;;5036200;28;20228;-61
2023/01/29 07:46:24;;;;;;;27.03;15.37;;;2.00;99.90;;;;;;5033538;28;20208;-60
2023/01/29 07:48:50;;;;;;;28.13;15.40;;;2.00;99.90;;;;;;5032207;28;20270;-60
2023/01/29 07:51:17;;;;;;;27.37;14.90;;;2.00;99.90;;;;;;5034705;28;20190;-60
2023/01/29 07:53:44;;;;;;;29.13;16.13;;;2.10;99.90;;;;;;5019258;28;20200;-60
2023/01/29 07:56:11;;;;;;;24.70;14.87;;;2.00;99.90;;;;;;5028658;28;20211;-60
2023/01/29 07:58:37;;;;;;;24.90;15.53;;;2.00;99.90;;;;;;5034270;28;20199;-60
2023/01/29 08:01:06;;;;;;;28.37;16.50;;;2.00;99.90;;;;;;5035945;28;20225;-60
2023/01/29 08:03:33;;;;;;;24.30;15.70;;;2.10;99.90;;;;;;5037153;28;20252;-60
2023/01/29 08:06:00;;;;;;;30.53;15.87;;;2.10;99.90;;;;;;5034442;28;20348;-60
2023/01/29 08:08:27;;;;;;;25.00;15.30;;;2.00;99.90;;;;;;5035266;28;20804;-60
2023/01/29 08:10:54;;;;;;;24.13;15.33;;;2.00;99.90;;;;;;5031317;28;20237;-60
2023/01/29 08:13:21;;;;;;;24.07;14.37;;;2.00;99.90;;;;;;5037002;28;20201;-60
2023/01/29 08:15:47;;;;;;;24.40;15.20;;;2.00;99.90;;;;;;5038797;28;20291;-61
2023/01/29 08:18:14;;;;;;;23.20;14.13;;;2.10;99.90;;;;;;5036875;28;20193;-60
2023/01/29 08:20:41;;;;;;;25.27;14.73;;;2.20;99.90;;;;;;5035748;28;20642;-60
2023/01/29 08:23:15;;;;;;;26.67;14.90;;;2.20;99.90;;;;;;5037352;28;20213;-62
2023/01/29 08:25:42;;;;;;;23.90;14.13;;;2.20;99.90;;;;;;5039504;28;20215;-60
2023/01/29 08:28:10;;;;;;;20.20;13.50;;;2.20;99.90;;;;;;5033564;28;20212;-62
2023/01/29 08:30:37;;;;;;;23.67;14.10;;;2.30;99.90;;;;;;5032447;28;20719;-62
2023/01/29 08:33:04;;;;;;;22.13;13.80;;;2.30;99.90;;;;;;5030170;28;20280;-62
2023/01/29 08:35:31;;;;;;;23.10;14.43;;;2.30;99.90;;;;;;5026778;28;20287;-60
2023/01/29 08:38:03;;;;;;;23.33;13.30;;;2.30;99.90;;;;;;5036709;28;20246;-64
2023/01/29 08:40:32;;;;;;;22.07;13.10;;;2.30;99.90;;;;;;5038520;28;20645;-60
2023/01/29 08:43:00;;;;;;;24.47;13.57;;;2.30;99.90;;;;;;5039848;28;20315;-60
2023/01/29 08:45:29;;;;;;;19.43;12.20;;;2.40;99.90;;;;;;5040677;28;20199;-60
2023/01/29 08:47:56;;;;;;;21.53;13.43;;;2.40;99.90;;;;;;5038158;28;20237;-60
2023/01/29 08:50:23;;;;;;;22.57;14.00;;;2.40;99.90;;;;;;5039405;28;20211;-60
2023/01/29 08:52:55;;;;;;;23.93;13.83;;;2.40;99.90;;;;;;5039932;28;20290;-60
2023/01/29 08:55:22;;;;;;;23.80;12.77;;;2.40;99.90;;;;;;5037940;28;20284;-60
2023/01/29 08:57:49;;;;;;;17.17;11.97;;;2.40;99.90;;;;;;5035716;28;20202;-59
2023/01/29 09:00:16;;;;;;;21.50;12.93;;;2.50;99.90;;;;;;5037320;28;20239;-60
2023/01/29 09:02:43;;;;;;;20.43;12.97;;;2.50;99.90;;;;;;5033767;28;20197;-60
2023/01/29 09:05:10;;;;;;;18.97;12.63;;;2.60;99.90;;;;;;5036775;28;20209;-60
2023/01/29 09:07:37;;;;;;;21.67;12.67;;;2.50;99.90;;;;;;5032423;28;20212;-61
2023/01/29 09:10:04;;;;;;;18.10;11.30;;;2.60;99.90;;;;;;5030203;28;20194;-60
2023/01/29 09:12:31;;;;;;;21.67;12.13;;;2.60;99.90;;;;;;5034262;28;20694;-60
2023/01/29 09:14:58;;;;;;;21.57;12.93;;;2.60;99.90;;;;;;5039075;28;20588;-60
2023/01/29 09:17:24;;;;;;;23.07;12.97;;;2.50;99.90;;;;;;5037120;28;20204;-60
2023/01/29 09:19:51;;;;;;;18.37;12.43;;;2.50;99.90;;;;;;5038213;28;20678;-60
2023/01/29 09:22:19;;;;;;;21.57;12.53;;;2.60;99.90;;;;;;5039282;28;20208;-61
2023/01/29 09:24:46;;;;;;;18.53;11.83;;;2.60;99.90;;;;;;5039962;28;20213;-61
2023/01/29 09:27:13;;;;;;;17.57;11.27;;;2.70;99.90;;;;;;5038495;28;20299;-60
2023/01/29 09:29:39;;;;;;;22.23;11.90;;;2.70;99.90;;;;;;5037240;28;20196;-60
2023/01/29 09:32:06;;;;;;;17.87;11.13;;;2.70;99.90;;;;;;5037986;28;20545;-60
2023/01/29 09:34:33;;;;;;;20.13;11.93;;;2.70;99.90;;;;;;5038985;28;20209;-60
2023/01/29 09:37:00;;;;;;;20.23;11.50;;;2.70;99.90;;;;;;5037169;28;20247;-60
2023/01/29 09:39:27;;;;;;;18.07;11.23;;;2.80;99.90;;;;;;5028926;28;20740;-60
2023/01/29 09:42:27;;;;;;;14.97;10.27;;;2.70;99.90;;;;;;5028898;28;20212;-61
2023/01/29 09:45:01;;;;;;;18.63;12.30;;;2.80;99.90;;;;;;5031337;28;20683;-60
2023/01/29 09:47:32;;;;;;;17.30;11.77;;;2.80;99.90;;;;;;5029415;28;20658;-62
2023/01/29 09:50:00;;;;;;;20.17;11.07;;;2.70;99.90;;;;;;5031247;28;20296;-60
2023/01/29 09:52:36;;;;;;;17.80;11.27;;;2.80;99.90;;;;;;5019334;28;20279;-61
2023/01/29 09:55:21;;;;;;;18.73;11.00;;;2.90;99.90;;;;;;5035239;28;20697;-60
2023/01/29 09:57:56;;;;;;;17.07;10.90;;;2.90;99.90;;;;;;5020286;28;20226;-61
2023/01/29 10:00:33;;;;;;;22.33;11.30;;;2.90;99.90;;;;;;5038659;28;20625;-60
2023/01/29 10:03:27;;;;;;;20.33;11.87;;;2.90;99.90;;;;;;5031297;28;20200;-60
2023/01/29 10:06:12;;;;;;;21.13;11.50;;;2.90;99.90;;;;;;5032970;28;20234;-60
2023/01/29 10:09:17;;;;;;;17.03;10.80;;;3.00;99.90;;;;;;5034433;28;20322;-61
2023/01/29 10:11:53;;;;;;;18.40;10.43;;;3.10;99.90;;;;;;4954942;28;20646;-61
2023/01/29 10:14:23;;;;;;;17.27;10.77;;;3.00;99.90;;;;;;5020945;28;20307;-63
2023/01/29 10:17:03;;;;;;;14.47;9.87;;;3.00;99.90;;;;;;5028882;28;20206;-60
2023/01/29 10:19:55;;;;;;;17.40;10.57;;;3.10;99.90;;;;;;5031524;28;20679;-60
2023/01/29 10:22:24;;;;;;;16.57;10.53;;;3.10;99.90;;;;;;5016344;28;20678;-60
2023/01/29 10:24:53;;;;;;;15.67;9.90;;;3.10;99.90;;;;;;5030838;28;20219;-60
2023/01/29 10:27:20;;;;;;;16.53;10.87;;;3.20;99.90;;;;;;5030061;28;20557;-60
2023/01/29 10:29:52;;;;;;;14.90;9.20;;;3.20;99.90;;;;;;5023193;28;20304;-60
2023/01/29 10:32:24;;;;;;;15.13;9.87;;;3.20;99.90;;;;;;5021012;28;20636;-61
2023/01/29 10:34:56;;;;;;;19.73;10.93;;;3.20;99.90;;;;;;5029241;28;20343;-61
2023/01/29 10:37:41;;;;;;;18.70;11.07;;;3.20;99.90;;;;;;5035640;28;20312;-60
2023/01/29 10:40:35;;;;;;;17.80;10.10;;;3.30;99.90;;;;;;5029002;28;20686;-60
2023/01/29 10:43:08;;;;;;;15.10;9.60;;;3.20;99.90;;;;;;5024707;28;20213;-59
2023/01/29 10:45:51;;;;;;;14.87;8.80;;;3.20;99.90;;;;;;5024891;28;20218;-61
2023/01/29 10:49:09;;;;;;;17.27;10.47;;;3.20;99.90;;;;;;5023798;28;20728;-60
2023/01/29 10:51:51;;;;;;;18.37;11.33;;;3.30;99.90;;;;;;4625392;28;9999646;-61
2023/01/29 10:54:18;;;;;;;18.77;11.57;;;3.30;99.90;;;;;;4997865;28;20845;-61
2023/01/29 10:57:14;;;;;;;17.70;10.20;;;3.30;99.90;;;;;;5020136;28;20719;-60
2023/01/29 10:59:59;;;;;;;17.17;10.97;;;3.30;99.90;;;;;;4989003;28;20693;-60
2023/01/29 11:02:25;;;;;;;16.33;10.17;;;3.40;99.90;;;;;;5023347;28;20262;-60
2023/01/29 11:04:52;;;;;;;17.17;10.83;;;3.40;99.90;;;;;;5007439;28;20229;-61
2023/01/29 11:07:21;;;;;;;16.90;10.07;;;3.40;99.90;;;;;;5001693;28;20205;-60
2023/01/29 11:10:07;;;;;;;23.30;11.50;;;3.40;99.90;;;;;;5000462;28;20345;-61
2023/01/29 11:12:37;;;;;;;15.33;10.50;;;3.50;99.90;;;;;;5009567;28;20640;-60
2023/01/29 11:15:27;;;;;;;19.03;11.73;;;3.60;99.90;;;;;;5019059;28;20211;-60
2023/01/29 11:18:05;;;;;;;17.07;11.07;;;3.50;99.90;;;;;;5009995;28;20315;-62
2023/01/29 11:20:33;;;;;;;17.20;10.40;;;3.60;99.90;;;;;;5018165;28;20211;-60
2023/01/29 11:23:00;;;;;;;16.60;10.47;;;3.50;99.90;;;;;;5021161;28;20265;-60
2023/01/29 11:25:28;;;;;;;18.03;11.13;;;3.60;99.90;;;;;;5014146;28;20232;-61
2023/01/29 11:27:59;;;;;;;17.97;11.33;;;3.50;99.90;;;;;;5009804;28;21133;-60
2023/01/29 11:30:40;;;;;;;16.40;11.03;;;3.60;99.90;;;;;;5002932;28;20298;-60
2023/01/29 11:33:24;;;;;;;17.83;10.97;;;3.60;99.90;;;;;;5022688;28;20220;-61
2023/01/29 11:35:51;;;;;;;17.97;11.43;;;3.70;99.90;;;;;;5025176;28;20502;-60
2023/01/29 11:38:27;;;;;;;15.97;11.37;;;3.70;99.90;;;;;;5019817;28;20246;-61
2023/01/29 11:41:13;;;;;;;18.57;11.53;;;3.80;99.90;;;;;;5023279;28;20586;-61
2023/01/29 11:43:40;;;;;;;19.30;11.37;;;3.70;99.90;;;;;;5023841;28;20207;-61
2023/01/29 11:46:14;;;;;;;18.00;10.93;;;3.70;99.90;;;;;;5032063;28;20216;-60
2023/01/29 11:48:49;;;;;;;20.37;12.03;;;3.60;99.90;;;;;;5027554;28;20615;-60
2023/01/29 11:51:28;;;;;;;17.77;11.03;;;3.60;99.90;;;;;;5026127;28;20690;-60
2023/01/29 11:53:59;;;;;;;18.83;12.23;;;3.70;99.90;;;;;;5022087;28;20275;-60
2023/01/29 11:56:33;;;;;;;16.53;11.10;;;3.70;99.90;;;;;;5027806;28;20201;-60
2023/01/29 11:59:03;;;;;;;19.03;12.63;;;3.70;99.90;;;;;;5026718;28;20243;-65
2023/01/29 12:01:35;;;;;;;19.03;10.90;;;3.70;99.90;;;;;;5018921;28;20694;-59
2023/01/29 12:04:09;;;;;;;20.50;11.43;;;3.70;99.90;;;;;;5029681;28;20708;-59
2023/01/29 12:06:42;;;;;;;17.40;11.90;;;3.60;99.90;;;;;;5041218;28;20546;-60
2023/01/29 12:09:14;;;;;;;18.03;11.70;;;3.60;99.90;;;;;;5037590;28;20961;-59
2023/01/29 12:11:42;;;;;;;20.50;11.37;;;3.60;99.90;;;;;;5035805;28;20679;-60
2023/01/29 12:14:32;;;;;;;19.90;11.77;;;3.60;99.90;;;;;;5034638;28;20209;-60
2023/01/29 12:17:03;;;;;;;19.10;11.40;;;3.70;99.90;;;;;;5031601;28;20199;-60
2023/01/29 12:19:45;;;;;;;23.43;12.67;;;3.70;99.90;;;;;;5024338;28;20722;-60
2023/01/29 12:22:29;;;;;;;24.20;13.73;;;3.80;99.90;;;;;;5032053;28;20619;-60
2023/01/29 12:25:26;;;;;;;22.23;13.47;;;3.70;99.90;;;;;;5032880;28;20231;-59
2023/01/29 12:28:23;;;;;;;19.83;11.93;;;3.70;99.90;;;;;;5029359;28;20223;-59
2023/01/29 12:30:59;;;;;;;19.40;13.30;;;3.80;99.90;;;;;;5032350;28;20203;-60
2023/01/29 12:33:35;;;;;;;19.10;12.17;;;3.80;99.90;;;;;;5030700;28;20248;-59
2023/01/29 12:36:12;;;;;;;21.17;11.57;;;3.80;99.90;;;;;;5035407;28;20541;-60
2023/01/29 12:38:40;;;;;;;21.67;13.40;;;3.80;99.90;;;;;;5035309;28;20563;-59
2023/01/29 12:41:27;;;;;;;21.77;14.23;;;3.70;99.90;;;;;;5035133;28;20298;-61
2023/01/29 12:44:05;;;;;;;22.97;12.63;;;3.70;99.90;;;;;;5036244;28;20668;-60
2023/01/29 12:46:38;;;;;;;20.97;13.33;;;3.80;99.90;;;;;;5031354;28;20619;-60
2023/01/29 12:49:19;;;;;;;21.37;13.20;;;3.80;99.90;;;;;;5036290;28;20283;-60
2023/01/29 12:52:03;;;;;;;21.23;12.83;;;3.80;99.90;;;;;;5035912;28;20195;-59
2023/01/29 12:54:38;;;;;;;25.50;13.63;;;3.80;99.90;;;;;;5037564;28;20296;-60
2023/01/29 12:57:17;;;;;;;22.33;13.63;;;3.90;99.90;;;;;;5033857;28;20726;-60
2023/01/29 12:59:53;;;;;;;22.87;13.57;;;3.90;99.90;;;;;;5033049;28;20207;-60
2023/01/29 13:02:30;;;;;;;22.57;14.00;;;3.90;99.90;;;;;;5035201;28;20235;-59
2023/01/29 13:05:22;;;;;;;23.20;13.83;;;3.90;99.90;;;;;;5033077;28;20299;-60
2023/01/29 13:08:00;;;;;;;23.43;13.77;;;3.90;99.90;;;;;;5032660;28;20282;-61
2023/01/29 13:10:33;;;;;;;24.17;14.77;;;3.90;99.90;;;;;;5032476;28;20287;-59
2023/01/29 13:13:30;;;;;;;24.13;14.50;;;4.00;99.90;;;;;;5033617;28;20291;-60
2023/01/29 13:15:59;;;;;;;23.13;13.87;;;4.00;99.90;;;;;;5037286;28;20212;-60
2023/01/29 13:18:43;;;;;;;22.17;13.33;;;4.00;99.90;;;;;;5035153;28;20196;-60
2023/01/29 13:21:20;;;;;;;25.13;14.30;;;4.00;99.90;;;;;;5035981;28;20300;-61
2023/01/29 13:23:58;;;;;;;24.90;15.07;;;4.00;99.90;;;;;;5035217;28;20204;-59
2023/01/29 13:26:26;;;;;;;25.03;15.50;;;4.00;99.90;;;;;;5033247;28;20229;-60
2023/01/29 13:28:54;;;;;;;21.93;14.77;;;4.00;99.90;;;;;;5012566;28;20196;-61